Tiempo atmosférico en la estación meteorológica de Calatayud, Zaragoza (600 m.)



Fecha
DESCASC
Temp. máxima en grados centígrados (hora)
DESCASC
Temp. mínima en grados centígrados (hora)
DESCASC
Temp. media en grados centígrados
DESCASC
Racha de viento máxima en m/sg (hora)
DESCASC
Velocidad máxima media en intervalos de 10 minutos(hora)
DESCASC
Precipitaciones diarias en mm
DESCASC
Precipitaciones de 00:00 a 06:00 en mm
DESCASC
Precipitaciones de 06:00 a 12:00 en mm
DESCASC
Precipitaciones de 12:00 a 18:00 en mm
DESCASC
Precipitaciones de 18:00 a 24:00 en mm
DESCASC
20-09-2018 32.8 (17:00) 14.4 (08:40) 23.6 9.44 (20:30) 4.44 (17:10) 0 0 0 0 0
19-09-2018 31.5 (18:10) 13.7 (08:50) 22.6 6.11 (18:30) 3.61 (20:00) 0.2 0.2 0 0 0
18-09-2018 29.9 (17:20) 14.3 (08:10) 22.1 13.89 (18:20) 8.61 (18:30) 0.4 0 0 0 0.4
17-09-2018 30.7 (15:30) 14.1 (07:30) 22.4 17.22 (18:00) 10 (18:00) 16.2 0 0 3.6 12.6
16-09-2018 32.3 (16:50) 13.9 (00:00) 23.1 8.06 (18:00) 5.28 (18:00) 0 0 0 0 0
15-09-2018 28.4 (15:30) 14.4 (00:00) 21.4 9.17 (18:20) 6.67 (18:00) 0 0 0 0 0
14-09-2018 29.6 (15:40) 12.9 (00:00) 21.3 9.72 (18:30) 6.67 (18:10) 0 0 0 0 0
13-09-2018 27.8 (15:50) 14.1 (00:00) 20.9 9.17 (20:00) 5.83 (18:10) 0 0 0 0 0
12-09-2018 29.1 (17:40) 15.5 (00:00) 22.3 9.17 (18:20) 6.39 (18:20) 10 0 9.8 0 0.2
11-09-2018 26.4 (14:40) 14.1 (00:00) 20.3 8.61 (15:10) 5.28 (15:00) 0 0 0 0 0
10-09-2018 -- (--) -- (--) -- -- (--) -- (--) 0.4 0.4 0 0 0
09-09-2018 29.4 (15:10) 16.2 (00:00) 22.8 10.83 (19:10) 6.67 (19:10) 0.4 0.4 0 0 0
08-09-2018 30.9 (15:40) 14.5 (00:00) 22.7 13.33 (17:20) 7.78 (17:20) 0 0 0 0 0
07-09-2018 26.4 (16:00) 12.7 (00:00) 19.5 9.72 (17:10) 6.39 (17:50) 0 0 0 0 0
06-09-2018 25.6 (15:10) 14.2 (00:00) 19.9 10.83 (16:10) 6.94 (16:20) 0.6 0 0 0 0.6
05-09-2018 29 (14:40) 14.4 (00:00) 21.7 12.22 (21:50) 8.06 (21:50) 1.8 0 0 1.8 0
04-09-2018 28.5 (14:50) 14.5 (00:00) 21.5 11.39 (20:20) 7.78 (20:20) 1.8 0 0 0 1.8
03-09-2018 29.7 (15:10) 17.3 (00:00) 23.5 12.5 (18:00) 8.06 (17:30) 0.6 0 0.6 0 0
02-09-2018 33.3 (16:00) 14.7 (00:00) 24 11.11 (19:00) 7.5 (18:20) 0 0 0 0 0
01-09-2018 31.2 (17:30) 13.9 (00:00) 22.6 8.33 (19:00) 5.28 (20:30) 0 0 0 0 0
31-08-2018 29.8 (16:30) 16.3 (00:00) 23 11.11 (19:20) 7.22 (19:20) 0 0 0 0 0
30-08-2018 29.7 (15:50) 16.2 (00:00) 23 11.11 (17:30) 7.78 (17:30) 0 0 0 0 0
29-08-2018 30.8 (15:40) 17 (00:00) 23.9 12.5 (18:30) 7.5 (18:30) 0 0 0 0 0
28-08-2018 36.5 (16:40) 15.9 (00:00) 26.2 22.78 (20:00) 9.72 (20:00) 0.4 0 0 0 0.4
27-08-2018 35.1 (17:20) 14.2 (00:00) 24.6 7.5 (19:30) 5.28 (19:30) 0 0 0 0 0
26-08-2018 33 (18:00) 11.2 (00:00) 22.1 9.44 (18:20) 6.67 (20:00) 0 0 0 0 0
25-08-2018 26.9 (15:30) 11.7 (00:00) 19.3 12.78 (19:30) 7.78 (19:30) 0 0 0 0 0
24-08-2018 30.4 (15:50) 15 (00:00) 22.7 12.5 (20:50) 8.33 (20:50) 0 0 0 0 0

Gráficas

Temp. máximas Temp. mínimas Temp. medias Precipitaciones Rachas de viento máximas Velocidades máximas media en intervalos de 10 minutos

Datos horarios

Fecha y hora oficial Temperatura (ºC) Velocidad del viento (km/h) Dirección del viento Racha (km/h) Dirección de racha Precipitación (mm) Presión (hPa) Tendencia (hPa) Humedad (%)
2018-09-22 23:00:00 -- -- -- -- -- -- -- -- --
2018-09-22 22:00:00 -- -- -- -- -- -- -- -- --
2018-09-22 21:00:00 -- -- -- -- -- -- -- -- --
2018-09-22 20:00:00 -- -- -- -- -- -- -- -- --
2018-09-22 19:00:00 -- -- -- -- -- -- -- -- --
2018-09-22 18:00:00 -- -- -- -- -- -- -- -- --
2018-09-22 17:00:00 -- -- -- -- -- -- -- -- --
2018-09-22 16:00:00 -- -- -- -- -- -- -- -- --
2018-09-22 15:00:00 -- -- -- -- -- -- -- -- --
2018-09-22 14:00:00 -- -- -- -- -- -- -- -- --
2018-09-22 13:00:00 -- -- -- -- -- -- -- -- --
2018-09-22 12:00:00 -- -- -- -- -- -- -- -- --
2018-09-22 11:00:00 -- -- -- -- -- -- -- -- --
2018-09-22 10:00:00 -- -- -- -- -- -- -- -- --
2018-09-22 09:00:00 -- -- -- -- -- -- -- -- --
2018-09-22 08:00:00 -- -- -- -- -- -- -- -- --
2018-09-22 07:00:00 -- -- -- -- -- -- -- -- --
2018-09-22 06:00:00 -- -- -- -- -- -- -- -- --
2018-09-22 05:00:00 -- -- -- -- -- -- -- -- --
2018-09-22 04:00:00 -- -- -- -- -- -- -- -- --
2018-09-22 03:00:00 -- -- -- -- -- -- -- -- --
2018-09-22 02:00:00 -- -- -- -- -- -- -- -- --
2018-09-22 01:00:00 -- -- -- -- -- -- -- -- --
2018-09-22 00:00:00 -- -- -- -- -- -- -- -- --
2018-09-21 23:00:00 -- -- -- -- -- -- -- -- --
2018-09-21 22:00:00 -- -- -- -- -- -- -- -- --
2018-09-21 21:00:00 -- -- -- -- -- -- -- -- --
2018-09-21 20:00:00 -- -- -- -- -- -- -- -- --
2018-09-21 19:00:00 -- -- -- -- -- -- -- -- --
2018-09-21 18:00:00 -- -- -- -- -- -- -- -- --
2018-09-21 17:00:00 -- -- -- -- -- -- -- -- --
2018-09-21 16:00:00 -- -- -- -- -- -- -- -- --
2018-09-21 15:00:00 -- -- -- -- -- -- -- -- --
2018-09-21 14:00:00 -- -- -- -- -- -- -- -- --
2018-09-21 13:00:00 -- -- -- -- -- -- -- -- --
2018-09-21 12:00:00 -- -- -- -- -- -- -- -- --
2018-09-21 11:00:00 -- -- -- -- -- -- -- -- --
2018-09-21 10:00:00 17 0 Calma 6 Norte 0 952.6 1.5 78
2018-09-21 09:00:00 15.1 5 Nordeste 10 Sur 0 952.2 1.4 85
2018-09-21 08:00:00 14.6 4 Sur 6 Sur 0 951.5 0.7 85
2018-09-21 07:00:00 14.9 2 Sur 5 Este 0 951.1 0.3 84
2018-09-21 06:00:00 15.5 3 Nordeste 7 Sur 0 950.8 0 81
2018-09-21 05:00:00 16.1 3 Sudeste 5 Sudeste 0 950.8 0 78
2018-09-21 04:00:00 16.9 0 Calma 5 Sudeste 0 950.8 0 76
2018-09-21 03:00:00 17.5 3 Sudeste 9 Sudeste 0 950.8 -0.2 74
2018-09-21 02:00:00 18.5 8 Sur 11 Sudeste 0 950.8 0.2 68
2018-09-21 01:00:00 19.8 4 Sur 14 Sur 0 950.8 0.5 64
2018-09-21 00:00:00 21.2 4 Sur 14 Sur 0 951 1.2 59
2018-09-20 23:00:00 22.1 8 Sur 13 Sur 0 950.6 0.9 55
2018-09-20 22:00:00 24 4 Oeste 22 Sur 0 950.3 0.8 46
2018-09-20 21:00:00 25.8 10 Sudoeste 34 Sudoeste 0 949.8 0.4 38
2018-09-20 20:00:00 26.5 10 Sur 19 Sur 0 949.7 -0.2 38
2018-09-20 19:00:00 29 14 Sur 23 Sur 0 949.5 -1 32
2018-09-20 18:00:00 31.7 9 Sur 26 Sur 0 949.4 -1.8 25
2018-09-20 17:00:00 32.8 6 Sudeste 20 Sudeste 0 949.9 -2.1 26
2018-09-20 16:00:00 32.1 5 Sur 14 Sur 0 950.5 -2.5 26
2018-09-20 15:00:00 31 3 Norte 11 Oeste 0 951.2 -2.4 29
2018-09-20 14:00:00 29 5 Noroeste 9 Oeste 0 952 -2 33
2018-09-20 13:00:00 26.3 4 Noroeste 9 Norte 0 953 -1.1 45
2018-09-20 12:00:00 23.5 3 Norte 8 Noroeste 0 953.6 -0.4 57
2018-09-20 11:00:00 20.1 2 Oeste 7 Sudoeste 0 954 0 70
2018-09-20 10:00:00 16.6 3 Oeste 5 Oeste 0 954.1 0.4 82
2018-09-20 09:00:00 14.7 2 Sudeste 3 Nordeste 0 954 0.2 87
2018-09-20 08:00:00 14.6 0 Calma 4 Sudoeste 0 954 0.2 87
2018-09-20 07:00:00 14.9 0 Calma 4 Nordeste 0 953.7 -0.1 85
2018-09-20 06:00:00 15.5 3 Nordeste 5 Norte 0 953.8 -0.2 84
2018-09-20 05:00:00 15.8 0 Calma 7 Sudoeste 0 953.8 -0.1 82
2018-09-20 04:00:00 16.7 4 Sur 5 Este 0 953.8 -0.2 78
2018-09-20 03:00:00 17.4 3 Nordeste 5 Nordeste 0 954 0.2 76
2018-09-20 02:00:00 18.1 2 Norte 4 Oeste 0 953.9 0.4 73
2018-09-20 01:00:00 18.8 0 Calma 6 Oeste 0 954 1.1 69
2018-09-20 00:00:00 19.4 2 Este 12 Sudeste 0 953.8 1.4 67
2018-09-19 23:00:00 20.4 6 Sur 10 Sur 0 953.5 1.4 64
2018-09-19 22:00:00 23.1 2 Sur 8 Sudeste 0 952.9 1 50
2018-09-19 21:00:00 24.4 3 Sur 15 Este 0 952.4 0.7 43
2018-09-19 20:00:00 27.4 13 Nordeste 19 Nordeste 0 952.1 0.2 31
2018-09-19 19:00:00 29.6 13 Nordeste 22 Nordeste 0 951.9 -0.7 25
2018-09-19 18:00:00 31.2 3 Norte 13 Nordeste 0 951.7 -1.6 27
2018-09-19 17:00:00 30.7 5 Nordeste 12 Nordeste 0 951.9 -2 26
2018-09-19 16:00:00 30.1 5 Este 12 Oeste 0 952.6 -1.9 27
2018-09-19 15:00:00 28.6 5 Oeste 9 Oeste 0 953.3 -1.6 33
2018-09-19 14:00:00 26.5 3 Sudoeste 10 Sudoeste 0 953.9 -1 46
2018-09-19 13:00:00 23.3 4 Oeste 9 Noroeste 0 954.5 0.1 58
2018-09-19 12:00:00 19.5 3 Oeste 6 Sudoeste 0 954.9 1 79
2018-09-19 11:00:00 15.4 3 Noroeste 5 Oeste 0 954.9 1.4 92
2018-09-19 10:00:00 14.6 3 Noroeste 6 Noroeste 0 954.4 1.4 93
2018-09-19 09:00:00 13.9 0 Calma 4 Noroeste 0 953.9 1.2 93
2018-09-19 08:00:00 13.8 3 Nordeste 6 Este 0 953.5 0.8 92
2018-09-19 07:00:00 13.8 4 Este 5 Este 0 953 0.5 92
2018-09-19 06:00:00 14.1 4 Sur 7 Sur 0.2 952.7 0 92
2018-09-19 05:00:00 14.7 5 Sur 8 Sudeste 0 952.7 -0.1 91
2018-09-19 04:00:00 15.1 2 Norte 5 Sudeste 0 952.5 0 90
2018-09-19 03:00:00 15.4 2 Sur 7 Sudeste 0 952.7 0.3 91
2018-09-19 02:00:00 15.7 5 Sudoeste 6 Sudoeste 0 952.8 0.5 90
2018-09-19 01:00:00 16.3 3 Este 7 Sudoeste 0 952.5 0.8 89
2018-09-19 00:00:00 17 4 Sudeste 11 Sur 0 952.4 2.3 87
2018-09-18 23:00:00 17.6 0 Calma 9 Sudeste 0 952.3 2.7 84
2018-09-18 22:00:00 17.7 4 Sudoeste 12 Sur 0 951.7 1.7 82
2018-09-18 21:00:00 18.6 9 Nordeste 18 Sudeste 0 950.1 2.2 81
2018-09-18 20:00:00 18.5 8 Sudeste 27 Oeste 0.4 949.6 1.7 79
2018-09-18 19:00:00 19.8 13 Oeste 50 Noroeste 0 950 1.7 69
2018-09-18 18:00:00 28.3 2 Norte 10 Este 0 947.9 -0.9 32
2018-09-18 17:00:00 29.7 3 Sudeste 13 Este 0 947.9 -1.6 30
2018-09-18 16:00:00 28 7 Nordeste 13 Norte 0 948.3 -1.8 41
2018-09-18 15:00:00 26.9 7 Norte 13 Norte 0 948.8 -2 46
2018-09-18 14:00:00 25.3 6 Sudoeste 11 Oeste 0 949.5 -1.5 50
2018-09-18 13:00:00 22.9 4 Este 9 Nordeste 0 950.1 -- 60
2018-09-18 12:00:00 20.4 2 Noroeste 6 Nordeste 0 950.8 0.6 71
2018-09-18 11:00:00 16.8 3 Oeste -- -- -- 951 1.6 86
2018-09-18 10:00:00 -- -- -- -- -- -- -- -- --
2018-09-18 09:00:00 14.9 0 Calma 5 Sur 0 950.2 0.9 90
2018-09-18 08:00:00 14.4 4 Sur 6 Sur 0 949.4 0.1 90
2018-09-18 07:00:00 14.8 3 Sudeste 9 Sur 0 949.4 0.3 89
2018-09-18 06:00:00 15.4 0 Calma 4 Sudeste 0 949.3 0 90
2018-09-18 05:00:00 15.7 3 Este 6 Noroeste 0 949.3 -0.1 89
2018-09-18 04:00:00 16.3 4 Norte 8 Nordeste 0 949.1 -0.6 88
2018-09-18 03:00:00 16.6 4 Sudeste 6 Sudoeste 0 949.3 -1 88
2018-09-18 02:00:00 16.8 4 Oeste 10 Noroeste 0 949.4 -0.7 88
2018-09-18 01:00:00 17.7 4 Este 23 Sur 0 949.7 0.2 84
2018-09-18 00:00:00 18.2 7 Sudeste 12 Sur 0 950.3 0.9 86
2018-09-17 23:00:00 18.3 4 Oeste 14 Sudeste 0 950.1 0.7 84
2018-09-17 22:00:00 18 5 Oeste 13 Norte 0 949.5 0.7 87
2018-09-17 21:00:00 18.2 4 Sudoeste 10 Este 0 949.4 -0.1 86
2018-09-17 20:00:00 18.2 4 Norte 11 Noroeste 0 949.4 1.8 84
2018-09-17 19:00:00 18.1 7 Nordeste 39 Sur 12.6 948.8 0.4 79
2018-09-17 18:00:00 19.8 36 Sur 62 Sur 3.6 949.5 0 77
2018-09-17 17:00:00 28.9 20 Nordeste 32 Norte 0 947.6 -2.8 33
2018-09-17 16:00:00 29.7 18 Nordeste 29 Nordeste 0 948.4 -2.8 33
2018-09-17 15:00:00 29.6 13 Nordeste 20 Nordeste 0 949.5 -2.5 33
2018-09-17 14:00:00 29.4 6 Norte 16 Nordeste 0 950.4 -2.2 30
2018-09-17 13:00:00 27 4 Nordeste 10 Norte 0 951.2 -1.7 40
2018-09-17 12:00:00 24.1 3 Noroeste 7 Oeste 0 952 -1 50
2018-09-17 11:00:00 20.1 3 Oeste 6 Oeste 0 952.6 -0.2 60
2018-09-17 10:00:00 17.5 3 Oeste 5 Oeste 0 952.9 0.4 68
2018-09-17 09:00:00 14.8 0 Calma 4 Sur 0 953 0.5 78
2018-09-17 08:00:00 14.3 3 Norte 5 Nordeste 0 952.8 0.3 77
2018-09-17 07:00:00 14.4 0 Calma 4 Este 0 952.5 0 76
2018-09-17 06:00:00 14.8 3 Sudoeste 4 Sudoeste 0 952.5 -0.1 73
2018-09-17 05:00:00 15.1 0 Calma 6 Sudoeste 0 952.5 -0.2 72
2018-09-17 04:00:00 16.2 4 Sudoeste 6 Sudoeste 0 952.5 -0.3 68
2018-09-17 03:00:00 16.9 5 Sudoeste 6 Oeste 0 952.6 0.1 67
2018-09-17 02:00:00 18.5 2 Noroeste 6 Noroeste 0 952.7 0.3 61
2018-09-17 01:00:00 19.6 3 Nordeste 8 Noroeste 0 952.8 0.8 57
2018-09-17 00:00:00 21.2 0 Calma 7 Nordeste 0 952.5 1 52
2018-09-16 23:00:00 23.1 5 Sudeste 10 Sur 0 952.4 0.9 43
2018-09-16 22:00:00 24.4 4 Sudeste 12 Nordeste 0 952 1 40
2018-09-16 21:00:00 25.5 10 Nordeste 18 Nordeste 0 951.5 0.6 39
2018-09-16 20:00:00 27.5 12 Nordeste 27 Nordeste 0 951.5 0.5 33
2018-09-16 19:00:00 29.5 17 Nordeste 26 Este 0 951 -0.3 25
2018-09-16 18:00:00 30.3 19 Nordeste 29 Nordeste 0 950.9 -1.1 21
2018-09-16 17:00:00 32.2 8 Nordeste 16 Nordeste 0 951 -1.6 23
2018-09-16 16:00:00 31.4 5 Nordeste 14 Nordeste 0 951.3 -2 21
2018-09-16 15:00:00 30.4 4 Norte 11 Noroeste 0 952 -1.9 28
2018-09-16 14:00:00 28 6 Norte 13 Sur 0 952.6 -1.4 35
2018-09-16 13:00:00 26.7 4 Este 10 Nordeste 0 953.3 -0.9 40
2018-09-16 12:00:00 23.7 4 Nordeste 8 Nordeste 0 953.9 -0.5 49
2018-09-16 11:00:00 20.4 3 Sudeste 8 Nordeste 0 954 0 62
2018-09-16 10:00:00 16.9 2 Noroeste 5 Nordeste 0 954.2 0.6 75
2018-09-16 09:00:00 14.9 0 Calma 4 Noroeste 0 954.4 1.3 84
2018-09-16 08:00:00 14 2 Norte 5 Sudeste 0 954 1.1 84
2018-09-16 07:00:00 14.4 4 Sudeste 8 Sudeste 0 953.6 0.5 82
2018-09-16 06:00:00 15.1 3 Este 9 Sudeste 0 953.1 -0.5 80
2018-09-16 05:00:00 15.5 5 Sudeste 9 Sur 0 952.9 -1.1 79
2018-09-16 04:00:00 16.4 2 Sudoeste 3 Sudoeste 0 953.1 -0.8 77
2018-09-16 03:00:00 17 3 Sudeste 5 Sudeste 0 953.6 -0.1 75
2018-09-16 02:00:00 17.3 4 Sudoeste 8 Oeste 0 954 0.5 74
2018-09-16 01:00:00 18.4 6 Sudoeste 7 Oeste 0 953.9 1 69
2018-09-16 00:00:00 19.9 3 Sudeste 8 Norte 0 953.7 1.5 63
2018-09-15 23:00:00 21.5 5 Este 8 Nordeste 0 953.5 2.1 56
2018-09-15 22:00:00 22.1 0 Calma 15 Este 0 952.9 1.8 53
2018-09-15 21:00:00 23.9 5 Este 16 Este 0 952.2 1.2 45
2018-09-15 20:00:00 26.3 9 Este 30 Nordeste 0 951.4 0.3 38
2018-09-15 19:00:00 27.5 16 Nordeste 33 Nordeste 0 951.1 -0.5 37
2018-09-15 18:00:00 27.8 24 Nordeste 33 Nordeste 0 951 -1.3 35
2018-09-15 17:00:00 27.9 18 Nordeste 29 Nordeste 0 951.1 -2 37
2018-09-15 16:00:00 28.3 17 Norte 25 Norte 0 951.6 -2.2 40
2018-09-15 15:00:00 27.3 12 Nordeste 20 Este 0 952.3 -1.7 41
2018-09-15 14:00:00 25.6 10 Nordeste 17 Nordeste 0 953.1 -1.1 47
2018-09-15 13:00:00 22.8 6 Norte 13 Nordeste 0 953.8 -0.6 56
2018-09-15 12:00:00 20.6 7 Norte 12 Norte 0 954 -0.1 62
2018-09-15 11:00:00 19.8 4 Oeste 10 Noroeste 0 954.2 0.4 64
2018-09-15 10:00:00 16.8 3 Nordeste 6 Norte 0 954.4 1.2 78
2018-09-15 09:00:00 15 0 Calma 5 Sudeste 0 954.1 1.3 84
2018-09-15 08:00:00 14.4 0 Calma 6 Sudeste 0 953.8 1 85
2018-09-15 07:00:00 15.2 2 Sudeste 5 Nordeste 0 953.2 0.4 81
2018-09-15 06:00:00 15.6 3 Este 9 Nordeste 0 952.8 -0.2 80
2018-09-15 05:00:00 16.2 4 Este 7 Nordeste 0 952.8 -0.3 77
2018-09-15 04:00:00 17.3 4 Sur 8 Sudeste 0 952.8 0 73
2018-09-15 03:00:00 17.7 5 Este 10 Sudeste 0 953 0.8 72
2018-09-15 02:00:00 18.8 4 Sudoeste 8 Sur 0 953.1 1.1 66
2018-09-15 01:00:00 20 3 Sudeste 22 Nordeste 0 952.8 1.1 62
2018-09-15 00:00:00 21.2 18 Nordeste 31 Nordeste 0 952.2 1.2 58
2018-09-14 23:00:00 22.3 13 Nordeste 22 Nordeste 0 952 1.6 53
2018-09-14 22:00:00 23.3 9 Este 27 Este 0 951.7 1.6 45
2018-09-14 21:00:00 24 14 Este 28 Nordeste 0 951 1 45
2018-09-14 20:00:00 25.4 17 Nordeste 30 Nordeste 0 950.4 0.2 41
2018-09-14 19:00:00 26.6 18 Nordeste 35 Nordeste 0 950.1 -0.5 39
2018-09-14 18:00:00 27.8 22 Nordeste 31 Nordeste 0 950 -1.1 35
2018-09-14 17:00:00 28.3 18 Nordeste 28 Nordeste 0 950.2 -1.6 33
2018-09-14 16:00:00 29.5 15 Nordeste 23 Nordeste 0 950.6 -1.9 31
2018-09-14 15:00:00 28.8 8 Nordeste 14 Este 0 951.1 -2 31
2018-09-14 14:00:00 26.6 4 Norte 13 Norte 0 951.8 -1.2 37
2018-09-14 13:00:00 24.5 5 Nordeste 10 Nordeste 0 952.5 -0.4 45
2018-09-14 12:00:00 21.9 -- -- -- -- -- 953.1 0.2 54
2018-09-14 11:00:00 19.1 0 Calma 6 Oeste 0 953 0.5 66
2018-09-14 10:00:00 16 3 Oeste 6 Oeste 0 952.9 0.6 77
2018-09-14 09:00:00 14.1 0 Calma 4 Sudoeste 0 952.9 1 86
2018-09-14 08:00:00 13 0 Calma 4 Sudoeste 0 952.5 0.3 87
2018-09-14 07:00:00 13.8 2 Sudoeste 6 Norte 0 952.3 0.2 86
2018-09-14 06:00:00 14.4 5 Nordeste 10 Sur 0 951.9 -0.5 84
2018-09-14 05:00:00 15.2 2 Sudeste 5 Oeste 0 952.2 -0.5 82
2018-09-14 04:00:00 16.1 3 Norte 6 Norte 0 952.1 -0.5 79
2018-09-14 03:00:00 16.8 2 Norte 7 Norte 0 952.4 -0.1 77
2018-09-14 02:00:00 17.6 5 Este 14 Sudeste 0 952.7 0.5 73
2018-09-14 01:00:00 18.5 2 Este 8 Sur 0 952.6 0.9 70
2018-09-14 00:00:00 19.8 5 Sur 7 Sur 0 952.5 1.5 63
2018-09-13 23:00:00 20.3 4 Oeste 10 Nordeste 0 952.2 1.8 62
2018-09-13 22:00:00 21.8 8 Nordeste 21 Nordeste 0 951.7 1.4 56
2018-09-13 21:00:00 22.9 14 Nordeste 31 Nordeste 0 951 0.5 51
2018-09-13 20:00:00 24.7 20 Nordeste 33 Nordeste 0 950.4 -0.6 45
2018-09-13 19:00:00 26.6 18 Nordeste 29 Nordeste 0 950.3 -1.3 42
2018-09-13 18:00:00 27.2 18 Nordeste 31 Nordeste 0 950.5 -1.6 42
2018-09-13 17:00:00 27.3 18 Nordeste 31 Nordeste 0 951 -1.8 43
2018-09-13 16:00:00 27.3 17 Nordeste 25 Nordeste 0 951.6 -1.8 43
2018-09-13 15:00:00 27 12 Nordeste 20 Nordeste 0 952.1 -1.7 44
2018-09-13 14:00:00 26 5 Nordeste 13 Este 0 952.8 -1.1 47
2018-09-13 13:00:00 24.3 5 Nordeste 15 Nordeste 0 953.4 -0.4 54
2018-09-13 12:00:00 22.2 3 Nordeste 9 Este 0 953.8 0.1 61
2018-09-13 11:00:00 19.4 3 Oeste 8 Oeste 0 953.9 0.4 73
2018-09-13 10:00:00 17.1 4 Nordeste 7 Este 0 953.8 0.5 79
2018-09-13 09:00:00 14.7 2 Sudoeste 8 Sur 0 953.7 0.6 88
2018-09-13 08:00:00 14.2 2 Este 6 Sudeste 0 953.5 0.3 89
2018-09-13 07:00:00 14.4 5 Sudeste 11 Sur 0 953.3 -0.1 90
2018-09-13 06:00:00 14.8 5 Sur 6 Sur 0 953.1 -0.4 88
2018-09-13 05:00:00 15.6 2 Oeste 5 Nordeste 0 953.2 -0.9 87
2018-09-13 04:00:00 16.2 3 Norte 9 Sudeste 0 953.4 -1 87
2018-09-13 03:00:00 16.4 2 Sudoeste 9 Sur 0 953.5 -1 84
2018-09-13 02:00:00 17.1 5 Sudeste 9 Sudeste 0 954.1 0 83
2018-09-13 01:00:00 17.8 3 Sur 14 Sudeste 0 954.4 0.7 80
2018-09-13 00:00:00 18.7 8 Sur 12 Sudeste 0 954.5 1.3 77
2018-09-12 23:00:00 19.4 6 Sudeste 17 Sur 0 954.1 1.4 74
2018-09-12 22:00:00 20.4 12 Sur 17 Sur 0 953.7 0.9 71
2018-09-12 21:00:00 22.5 2 Sudeste 14 Nordeste 0 953.2 0.8 64
2018-09-12 20:00:00 24.6 2 Este 13 Sudeste 0 952.7 0 60
2018-09-12 19:00:00 24.8 5 Oeste 33 Nordeste 0.2 952.8 -0.6 58
2018-09-12 18:00:00 28.5 10 Norte 21 Nordeste 0 952.4 -1.9 39
2018-09-12 17:00:00 28.5 5 Este 13 Norte 0 952.7 -2.5 36
2018-09-12 16:00:00 27.4 5 Nordeste 20 Este 0 953.4 -2.4 40
2018-09-12 15:00:00 26.2 7 Este 16 Nordeste 0 954.3 -2 45
2018-09-12 14:00:00 24.9 5 Oeste 12 Oeste 0 955.2 -1.2 49
2018-09-12 13:00:00 22.8 4 Noroeste 13 Oeste 0 955.8 0 60
2018-09-12 12:00:00 21.3 5 Oeste 11 Oeste 0 956.3 0.6 67
2018-09-12 11:00:00 19.6 4 Noroeste 8 Norte 0 956.4 1.4 77
2018-09-12 10:00:00 18.1 4 Sur 10 Sur 0.2 955.8 0.5 86
2018-09-12 09:00:00 16.3 6 Sur 12 Sur 1.4 955.7 0.6 92
2018-09-12 08:00:00 16.1 5 Nordeste 15 Nordeste 4.4 955 -0.1 91
2018-09-12 07:00:00 16 6 Este 12 Sur 3.8 955.3 0.1 90
2018-09-12 06:00:00 15.5 5 Sudoeste 7 Sur 0 955.1 -0.3 85
2018-09-12 05:00:00 16 2 Sudeste 9 Sur 0 955.1 -1 84
2018-09-12 04:00:00 16.3 3 Sudoeste 7 Norte 0 955.2 -0.3 83
2018-09-12 03:00:00 16.7 4 Este 6 Sudeste 0 955.4 -0.3 82
2018-09-12 02:00:00 16.2 4 Sudoeste 13 Sur 0 956.1 0.6 82
2018-09-12 01:00:00 17.5 4 Este 6 Nordeste 0 955.5 0 78
2018-09-12 00:00:00 18.2 2 Norte 9 Sudeste 0 955.7 0.6 75
2018-09-11 23:00:00 19.4 3 Sudeste 9 Nordeste 0 955.5 0.3 71
2018-09-11 22:00:00 20.9 3 Este 6 Este 0 955.5 0.9 65
2018-09-11 21:00:00 21.9 5 Norte 11 Nordeste 0 955.1 -0.1 61
2018-09-11 20:00:00 22.2 9 Nordeste 19 Nordeste 0 955.2 -0.6 62
2018-09-11 19:00:00 23.1 4 Oeste 13 Sur 0 954.6 -1.4 60
2018-09-11 18:00:00 22.5 9 Sur 17 Sur 0 955.2 -1.1 59
2018-09-11 17:00:00 22.1 15 Sur 20 Sur 0 955.8 -1 55
2018-09-11 16:00:00 23.5 4 Sudeste 31 Nordeste 0 956 -1.1 59
2018-09-11 15:00:00 25.2 19 Nordeste 30 Nordeste 0 956.3 -1.2 47
2018-09-11 14:00:00 24.6 18 Nordeste 28 Nordeste 0 956.8 -0.9 51
2018-09-11 13:00:00 24.5 7 Nordeste 14 Norte 0 957.1 -0.6 51
2018-09-11 12:00:00 22.3 6 Sur 13 Sur 0 957.5 -0.1 57
2018-09-11 11:00:00 19.6 4 Sur 10 Sur 0 957.7 0.5 68
2018-09-11 10:00:00 16.9 3 Sudoeste 6 Sur 0 957.7 0.9 78
2018-09-11 09:00:00 14.3 2 Sur 6 Sudoeste 0 957.6 0.9 86
2018-09-11 08:00:00 14.1 3 Sur 5 Sur 0 957.2 0.4 86
2018-09-11 07:00:00 14.6 2 Sudeste 4 Sudeste 0 956.8 0.2 85
2018-09-11 06:00:00 14.7 3 Nordeste 9 Sur 0 956.7 0.1 84
2018-09-11 05:00:00 15.7 3 Sudoeste 4 Sur 0 956.8 0.1 80
2018-09-11 04:00:00 16.1 3 Sur 6 Sudeste 0 956.6 -0.1 81
2018-09-11 03:00:00 17.2 3 Sudeste 5 Nordeste 0 956.6 0.1 75
2018-09-11 02:00:00 17.8 3 Nordeste 12 Sudeste 0 956.7 0.2 73
2018-09-11 01:00:00 17.8 6 Sudoeste 14 Sur 0 956.7 0.5 74
2018-09-11 00:00:00 19 5 Sur 9 Sur 0 956.5 1.1 68
2018-09-10 23:00:00 20.7 4 Sudeste 8 Este 0 956.5 1.6 61
2018-09-10 22:00:00 21.7 5 Este 12 Este 0 956.2 1.3 57
2018-09-10 21:00:00 23.2 7 Nordeste 18 Nordeste 0 955.4 0.7 52
2018-09-10 20:00:00 25 13 Nordeste 25 Nordeste 0 954.9 -0.3 45
2018-09-10 19:00:00 26.1 18 Nordeste 25 Nordeste 0 954.9 -0.8 41
2018-09-10 18:00:00 27.1 12 Norte 24 Nordeste 0 954.7 -1.4 39
2018-09-10 17:00:00 26.9 9 Nordeste 22 Nordeste 0 955.2 -1.3 40
2018-09-10 16:00:00 25.9 12 Nordeste 27 Nordeste 0 955.7 -- 44
2018-09-10 15:00:00 24.2 16 Nordeste 26 Nordeste 0 956.1 -- 51
2018-09-10 14:00:00 24.4 13 Nordeste -- -- -- 956.5 -- 51
2018-09-10 13:00:00 -- -- -- -- -- -- -- -- --
2018-09-10 12:00:00 -- -- -- -- -- -- -- -- --
2018-09-10 11:00:00 -- -- -- -- -- -- -- -- --
2018-09-10 10:00:00 -- -- -- -- -- -- -- -- --
2018-09-10 09:00:00 -- -- -- -- -- -- -- -- --
2018-09-10 08:00:00 -- -- -- -- -- -- -- -- --
2018-09-10 07:00:00 -- -- -- -- -- -- -- -- --
2018-09-10 06:00:00 -- -- -- -- -- -- -- -- --
2018-09-10 05:00:00 -- -- -- -- -- -- -- -- --
2018-09-10 04:00:00 -- -- -- -- -- -- -- -- --
2018-09-10 03:00:00 -- -- -- -- -- -- -- -- --
2018-09-10 02:00:00 -- -- -- -- -- -- -- -- --
2018-09-10 01:00:00 18.6 4 Nordeste 22 Norte 0.4 954.8 1.4 73
2018-09-10 00:00:00 21 19 Nordeste 32 Nordeste 0 954.5 2.2 71
2018-09-09 23:00:00 22 6 Sudeste 18 Este 0 953.9 2.3 54
2018-09-09 22:00:00 22.5 7 Nordeste 19 Nordeste 0 953.4 2.4 60
2018-09-09 21:00:00 23 12 Nordeste 30 Norte 0 952.3 1.6 59
2018-09-09 20:00:00 24.3 14 Nordeste 39 Nordeste 0 951.6 1.1 52
2018-09-09 19:00:00 25.2 23 Nordeste 35 Nordeste 0 951 0.1 45
2018-09-09 18:00:00 25.8 19 Nordeste 32 Nordeste 0 950.7 -1.1 43
2018-09-09 17:00:00 27.8 19 Nordeste 33 Nordeste 0 950.5 -1.6 37
2018-09-09 16:00:00 28.8 10 Norte 34 Nordeste 0 950.9 -1.8 34
2018-09-09 15:00:00 29.3 6 Oeste 17 Sudoeste 0 951.8 -1.5 29
2018-09-09 14:00:00 -- -- -- -- -- -- -- -- --
2018-09-09 13:00:00 -- -- -- -- -- -- -- -- --
2018-09-09 12:00:00 -- -- -- -- -- -- -- -- --
2018-09-09 11:00:00 -- -- -- -- -- -- -- -- --
2018-09-09 10:00:00 -- -- -- -- -- -- -- -- --
2018-09-09 09:00:00 -- -- -- -- -- -- -- -- --
2018-09-09 08:00:00 -- -- -- -- -- -- -- -- --
2018-09-09 07:00:00 -- -- -- -- -- -- -- -- --
2018-09-09 06:00:00 -- -- -- -- -- -- -- -- --
2018-09-09 05:00:00 -- -- -- -- -- -- -- -- --
2018-09-09 04:00:00 -- -- -- -- -- -- -- -- --
2018-09-09 03:00:00 -- -- -- -- -- -- -- -- --
2018-09-09 02:00:00 -- -- -- -- -- -- -- -- --
2018-09-09 01:00:00 -- -- -- -- -- -- -- -- --
2018-09-09 00:00:00 -- -- -- -- -- -- -- -- --
2018-09-08 23:00:00 -- -- -- -- -- -- -- -- --
2018-09-08 22:00:00 -- -- -- -- -- -- -- -- --
2018-09-08 21:00:00 -- -- -- -- -- -- -- -- --
2018-09-08 20:00:00 -- -- -- -- -- -- -- -- --
2018-09-08 19:00:00 -- -- -- -- -- -- -- -- --
2018-09-08 18:00:00 -- -- -- -- -- -- -- -- --
2018-09-08 17:00:00 -- -- -- -- -- -- -- -- --
2018-09-08 16:00:00 -- -- -- -- -- -- -- -- --
2018-09-08 15:00:00 -- -- -- -- -- -- -- -- --
2018-09-08 14:00:00 -- -- -- -- -- -- -- -- --
2018-09-08 13:00:00 -- -- -- -- -- -- -- -- --
2018-09-08 12:00:00 -- -- -- -- -- -- -- -- --
2018-09-08 11:00:00 -- -- -- -- -- -- -- -- --
2018-09-08 10:00:00 -- -- -- -- -- -- -- -- --
2018-09-08 09:00:00 -- -- -- -- -- -- -- -- --
2018-09-08 08:00:00 -- -- -- -- -- -- -- -- --
2018-09-08 07:00:00 -- -- -- -- -- -- -- -- --
2018-09-08 06:00:00 -- -- -- -- -- -- -- -- --
2018-09-08 05:00:00 -- -- -- -- -- -- -- -- --
2018-09-08 04:00:00 17.8 5 Este 6 Norte 0 950.6 0.4 69
2018-09-08 03:00:00 18.7 3 Norte 8 Sudoeste 0 950.4 0.1 68
2018-09-08 02:00:00 19 5 Sudoeste 9 Sudoeste 0 950.4 0.7 65
2018-09-08 01:00:00 19.2 5 Sudoeste 7 Sudoeste 0 950.2 0.7 64
2018-09-08 00:00:00 19.5 5 Sur 9 Oeste 0 950.3 1.7 65
2018-09-07 23:00:00 20.7 4 Este 18 Este 0 949.7 1.2 53
2018-09-07 22:00:00 21.7 10 Este 26 Este 0 949.5 1.7 50
2018-09-07 21:00:00 22.3 16 Nordeste 31 Este 0 948.6 1 48
2018-09-07 20:00:00 22.4 12 Nordeste 32 Nordeste 0 948.5 0.8 51
2018-09-07 19:00:00 23.9 20 Nordeste 34 Nordeste 0 947.8 -0.2 42
2018-09-07 18:00:00 25.4 20 Nordeste 35 Nordeste 0 947.6 -0.9 39
2018-09-07 17:00:00 25.8 21 Nordeste 35 Nordeste 0 947.7 -1.5 38
2018-09-07 16:00:00 26.4 13 Nordeste 26 Nordeste 0 948 -2.1 37
2018-09-07 15:00:00 25.5 12 Nordeste 22 Norte 0 948.5 -2 39
2018-09-07 14:00:00 24.3 9 Norte 18 Norte 0 949.2 -1.5 43
2018-09-07 13:00:00 22.9 5 Norte 13 Norte 0 950.1 -0.5 48
2018-09-07 12:00:00 20.8 3 Sudeste 10 Noroeste 0 950.5 -0.1 55
2018-09-07 11:00:00 18.5 4 Sudoeste 7 Sudoeste 0 950.7 0.5 63
2018-09-07 10:00:00 15.9 3 Oeste 5 Sudoeste 0 950.6 0.7 77
2018-09-07 09:00:00 14.2 3 Nordeste 6 Nordeste 0 950.6 1 82
2018-09-07 08:00:00 12.9 2 Norte 6 Sudeste 0 950.2 0.7 86
2018-09-07 07:00:00 13.1 6 Sur 16 Sur 0 949.9 0.2 85
2018-09-07 06:00:00 13.6 6 Sur 12 Sur 0 949.6 0 83
2018-09-07 05:00:00 14 3 Sudeste 15 Sur 0 949.5 -0.5 84
2018-09-07 04:00:00 14.3 7 Sur 13 Sur 0 949.7 -0.2 83
2018-09-07 03:00:00 15.3 3 Sudoeste 12 Sur 0 949.6 0 78
2018-09-07 02:00:00 15.4 4 Sur 9 Nordeste 0 950 0.8 81
2018-09-07 01:00:00 16.7 5 Norte 13 Nordeste 0 949.9 1.1 75
2018-09-07 00:00:00 17 5 Nordeste 10 Nordeste 0 949.6 1.3 74
2018-09-06 23:00:00 17.9 11 Nordeste 21 Nordeste 0 949.2 1.5 68
2018-09-06 22:00:00 17.8 4 Sudeste 17 Sur 0 948.8 1.1 75
2018-09-06 21:00:00 18.6 5 Sudoeste 10 Oeste 0 948.3 1.3 74
2018-09-06 20:00:00 19.4 6 Oeste 10 Oeste 0 947.7 0.9 75
2018-09-06 19:00:00 19.6 5 Sur 15 Oeste 0.6 947.7 1.1 80
2018-09-06 18:00:00 22 6 Oeste 32 Nordeste 0 947 -0.2 62
2018-09-06 17:00:00 24.2 22 Nordeste 39 Nordeste 0 946.8 -0.7 44
2018-09-06 16:00:00 24.7 23 Nordeste 35 Nordeste 0 946.6 -1.4 45
2018-09-06 15:00:00 25.4 8 Este 27 Nordeste 0 947.2 -1.3 43
2018-09-06 14:00:00 24 12 Nordeste 20 Nordeste 0 947.5 -1.1 47
2018-09-06 13:00:00 23.7 6 Nordeste 19 Norte 0 948 -0.4 50
2018-09-06 12:00:00 22.3 3 Oeste 12 Norte 0 948.5 0.2 56
2018-09-06 11:00:00 19.2 5 Norte 11 Norte 0 948.6 0.6 67
2018-09-06 10:00:00 16.9 4 Sur 7 Sur 0 948.4 0.9 79
2018-09-06 09:00:00 14.5 2 Sur 6 Sudoeste 0 948.3 1.1 86
2018-09-06 08:00:00 14.5 0 Calma 5 Nordeste 0 948 0.5 87
2018-09-06 07:00:00 14.5 2 Este 7 Sudoeste 0 947.5 0 87
2018-09-06 06:00:00 14.8 4 Sudoeste 6 Oeste 0 947.2 -0.4 85
2018-09-06 05:00:00 15.6 0 Calma 9 Nordeste 0 947.5 0 84
2018-09-06 04:00:00 15.8 5 Nordeste 9 Este 0 947.5 -0.1 82
2018-09-06 03:00:00 15.7 5 Sur 16 Sudeste 0 947.6 0.2 81
2018-09-06 02:00:00 16.5 7 Sur 13 Sur 0 947.5 0 78
2018-09-06 01:00:00 17.8 7 Este 17 Nordeste 0 947.6 0.6 76
2018-09-06 00:00:00 18 11 Nordeste 26 Nordeste 0 947.4 2 78
2018-09-05 23:00:00 18.3 19 Nordeste 33 Nordeste 0 947.5 3.1 76
2018-09-05 22:00:00 19.1 26 Nordeste 44 Nordeste 0 947 2.7 69
2018-09-05 21:00:00 22 18 Nordeste 35 Nordeste 0 945.4 1 64
2018-09-05 20:00:00 25.4 3 Sudeste 23 Nordeste 0 944.4 0 48
2018-09-05 19:00:00 25.9 14 Nordeste 26 Nordeste 0 944.3 -0.8 53
2018-09-05 18:00:00 25.3 17 Nordeste 33 Nordeste 0 944.4 -1.2 56
2018-09-05 17:00:00 26.2 13 Nordeste 23 Nordeste 0 944.4 -1.8 56
2018-09-05 16:00:00 24.5 17 Nordeste 32 Nordeste 1.8 945.1 -1.9 59
2018-09-05 15:00:00 27 16 Nordeste 32 Nordeste 0 945.6 -2.1 46
2018-09-05 14:00:00 27.1 15 Nordeste 23 Nordeste 0 946.2 -1.8 43
2018-09-05 13:00:00 26.1 3 Norte 14 Norte 0 947 -1.1 46
2018-09-05 12:00:00 23.9 6 Norte 14 Nordeste 0 947.7 -0.4 58
2018-09-05 11:00:00 21.3 4 Nordeste 9 Nordeste 0 948 0.3 67
2018-09-05 10:00:00 18.5 0 Calma 7 Sudoeste 0 948.1 0.9 76
2018-09-05 09:00:00 15.1 4 Sudoeste 10 Sudoeste 0 948.1 1.1 85
2018-09-05 08:00:00 15.5 5 Sur 8 Sur 0 947.7 0.6 84
2018-09-05 07:00:00 15.5 2 Sudoeste 9 Sur 0 947.2 0.2 81
2018-09-05 06:00:00 17.4 5 Sudeste 10 Sudeste 0 947 -0.2 77
2018-09-05 05:00:00 16.2 4 Este 12 Este 0 947.1 0.1 80
2018-09-05 04:00:00 17.1 3 Sudeste 7 Sudeste 0 947 0.4 75
2018-09-05 03:00:00 17.2 4 Este 10 Sudeste 0 947.2 0.6 74
2018-09-05 02:00:00 18.1 3 Sudeste 9 Sudeste 0 947 0.6 70
2018-09-05 01:00:00 19.5 4 Nordeste 17 Nordeste 0 946.6 0.9 66
2018-09-05 00:00:00 19.7 6 Este 11 Este 0 946.6 1.7 65
2018-09-04 23:00:00 19.9 4 Noroeste 8 Oeste 0 946.4 1.3 72
2018-09-04 22:00:00 21.1 4 Este 8 Este 0 945.7 1.1 65
2018-09-04 21:00:00 22.2 3 Nordeste 41 Este 0.2 944.9 0.7 58
2018-09-04 20:00:00 23.6 8 Noroeste 17 Nordeste 1.6 945.1 0.7 60
2018-09-04 19:00:00 27.1 8 Nordeste 22 Nordeste 0 944.6 0.5 33
2018-09-04 18:00:00 25.7 5 Sudoeste 28 Este 0 944.2 -0.4 47
2018-09-04 17:00:00 27.3 10 Este 35 Nordeste 0 944.4 -0.7 34
2018-09-04 16:00:00 27.1 26 Nordeste 37 Nordeste -- 944.1 -1.8 35
2018-09-04 15:00:00 27.6 22 Nordeste 35 Nordeste -- 944.6 -1.8 33
2018-09-04 14:00:00 28.1 17 Nordeste 28 Nordeste -- 945.1 -1.7 33
2018-09-04 13:00:00 27.1 8 Nordeste 17 Nordeste 0 945.9 -1 35
2018-09-04 12:00:00 24.5 7 Norte 14 Norte 0 946.4 -0.7 39
2018-09-04 11:00:00 21.6 4 Nordeste 9 Norte 0 946.8 0 46
2018-09-04 10:00:00 18.9 5 Norte 9 Nordeste 0 946.9 0.4 58
2018-09-04 09:00:00 16.6 3 Norte 8 Sur 0 947.1 0.5 67
2018-09-04 08:00:00 14.6 6 Sur 9 Sur 0 946.8 0.3 74
2018-09-04 07:00:00 15.1 5 Sudoeste 9 Sur 0 946.5 0.2 72
2018-09-04 06:00:00 16.6 7 Sur 11 Sur 0 946.6 0.3 67
2018-09-04 05:00:00 16.8 2 Nordeste 8 Sur 0 946.5 0.4 66
2018-09-04 04:00:00 17.5 2 Este 9 Sudeste 0 946.3 0.6 65
2018-09-04 03:00:00 18.7 4 Sur 10 Sur 0 946.3 0.5 58
2018-09-04 02:00:00 20 0 Calma 14 Este 0 946.1 0.5 54
2018-09-04 01:00:00 21.1 6 Este 21 Este 0 945.7 0.4 50
2018-09-04 00:00:00 21.5 8 Nordeste 17 Nordeste 0 945.8 1.6 53
2018-09-03 23:00:00 22.8 14 Este 24 Este 0 945.6 2.1 50
2018-09-03 22:00:00 25.2 14 Este 26 Nordeste 0 945.3 1.7 43
2018-09-03 21:00:00 25 6 Sur 15 Este 0 944.2 1.2 44
2018-09-03 20:00:00 25.7 15 Nordeste 32 Nordeste 0 943.5 0.3 45
2018-09-03 19:00:00 26.3 22 Nordeste 39 Nordeste 0 943.6 -0.4 44
2018-09-03 18:00:00 26.4 26 Nordeste 45 Nordeste 0 943 -1.5 41
2018-09-03 17:00:00 28.3 28 Nordeste 42 Nordeste 0 943.2 -2.3 35
2018-09-03 16:00:00 28.3 29 Nordeste 40 Nordeste 0 944 -2.5 35
2018-09-03 15:00:00 29.5 25 Nordeste 37 Nordeste 0 944.5 -1.8 33
2018-09-03 14:00:00 28.2 21 Nordeste 31 Nordeste 0 945.5 -1.9 34
2018-09-03 13:00:00 27.1 13 Nordeste 21 Nordeste 0 946.5 -0.9 38
2018-09-03 12:00:00 23.3 8 Oeste 35 Nordeste 0 946.3 -0.1 55
2018-09-03 11:00:00 22.3 5 Sudeste 27 Sudoeste 0 947.4 0.2 54
2018-09-03 10:00:00 19.1 8 Este 39 Oeste 0.6 947.4 0.3 69
2018-09-03 09:00:00 18.1 5 Sudeste 18 Nordeste 0 946.4 -0.4 64
2018-09-03 08:00:00 17.6 5 Este 16 Nordeste 0 947.2 0.8 63
2018-09-03 07:00:00 18 4 Sudeste 21 Sudoeste 0 947.1 0.1 64
2018-09-03 06:00:00 17.4 9 Oeste 24 Oeste 0 946.8 -0.3 60
2018-09-03 05:00:00 18.4 14 Nordeste 22 Nordeste 0 946.4 -0.9 52
2018-09-03 04:00:00 18.1 3 Oeste 6 Sudoeste 0 947 -0.5 52
2018-09-03 03:00:00 19.4 3 Sudeste 5 Sudoeste 0 947.1 -0.3 49
2018-09-03 02:00:00 20.6 3 Norte 7 Nordeste 0 947.3 -0.1 46
2018-09-03 01:00:00 21.5 3 Sudeste 10 Sur 0 947.5 0.3 41
2018-09-03 00:00:00 23.3 2 Nordeste 5 Sur 0 947.4 0.8 37
2018-09-02 23:00:00 25.1 3 Sur 9 Este 0 947.4 1.1 30
2018-09-02 22:00:00 26.6 2 Oeste 21 Nordeste 0 947.2 1 29
2018-09-02 21:00:00 27.8 14 Nordeste 24 Nordeste 0 946.6 0.8 26
2018-09-02 20:00:00 29.2 18 Nordeste 39 Nordeste 0 946.3 0 26
2018-09-02 19:00:00 30.4 24 Nordeste 40 Nordeste 0 946.2 -0.7 27
2018-09-02 18:00:00 31.7 25 Nordeste 38 Nordeste 0 945.8 -2.1 24
2018-09-02 17:00:00 33 19 Nordeste 33 Nordeste 0 946.3 -2.4 21
2018-09-02 16:00:00 33.3 8 Este 24 Nordeste 0 946.9 -2.6 21
2018-09-02 15:00:00 31.7 5 Oeste 20 Nordeste 0 947.9 -2.4 24
2018-09-02 14:00:00 30.6 5 Noroeste 15 Oeste 0 948.7 -2.1 27
2018-09-02 13:00:00 28.5 5 Nordeste 13 Nordeste 0 949.5 -1.5 27
2018-09-02 12:00:00 26 5 Nordeste 11 Nordeste 0 950.3 -0.7 31
2018-09-02 11:00:00 22.1 3 Nordeste 8 Nordeste 0 950.8 0 45
2018-09-02 10:00:00 19.1 2 Noroeste 5 Norte 0 951 0.4 54
2018-09-02 09:00:00 16.3 2 Norte 5 Nordeste 0 951 0.3 62
2018-09-02 08:00:00 14.8 4 Nordeste 6 Nordeste 0 950.8 0.1 68
2018-09-02 07:00:00 15.3 0 Calma 3 Sudeste 0 950.6 -0.4 65
2018-09-02 06:00:00 15.6 4 Sur 6 Sudoeste 0 950.7 -0.5 66
2018-09-02 05:00:00 16.8 4 Sur 7 Sur 0 950.7 -0.3 61
2018-09-02 04:00:00 18 4 Nordeste 5 Nordeste 0 951 0.1 56
2018-09-02 03:00:00 19 2 Sur 13 Sur 0 951.2 0.3 53
2018-09-02 02:00:00 19.6 11 Sur 16 Sur 0 951 0.3 51
2018-09-02 01:00:00 22.1 10 Sur 14 Sudeste 0 950.9 0.7 42
2018-09-02 00:00:00 23.7 8 Nordeste 13 Este 0 950.9 1.2 37
2018-09-01 23:00:00 24.6 7 Este 21 Nordeste 0 950.7 1.3 37
2018-09-01 22:00:00 26 17 Nordeste 29 Este 0 950.2 0.8 32
2018-09-01 21:00:00 27 15 Nordeste 29 Nordeste 0 949.7 0.2 29
2018-09-01 20:00:00 29 17 Nordeste 29 Nordeste 0 949.4 -0.4 27
2018-09-01 19:00:00 30.2 19 Nordeste 30 Nordeste 0 949.4 -1.2 24
2018-09-01 18:00:00 30.9 16 Nordeste 28 Nordeste 0 949.5 -1.8 22
2018-09-01 17:00:00 31 12 Nordeste 27 Nordeste 0 949.8 -1.9 24
2018-09-01 16:00:00 30.6 10 Nordeste 29 Nordeste 0 950.6 -1.7 25
2018-09-01 15:00:00 29.8 14 Nordeste 23 Norte 0 951.3 -1.8 28
2018-09-01 14:00:00 28.4 9 Nordeste 21 Nordeste 0 951.7 -1.7 28
2018-09-01 13:00:00 26.6 7 Nordeste 12 Nordeste 0 952.3 -1.2 36
2018-09-01 12:00:00 24.2 4 Oeste 11 Oeste 0 953.1 -0.2 48
2018-09-01 11:00:00 20.9 2 Noroeste 8 Norte 0 953.4 0.4 58
2018-09-01 10:00:00 18.2 3 Oeste 5 Noroeste 0 953.5 0.7 66
2018-09-01 09:00:00 16 3 Sur 4 Sur 0 953.3 0.4 74
2018-09-01 08:00:00 14 0 Calma 5 Oeste 0 953 0.1 82
2018-09-01 07:00:00 14.5 2 Sur 5 Sudoeste 0 952.8 -0.1 80
2018-09-01 06:00:00 15.4 0 Calma 5 Oeste 0 952.9 0 76
2018-09-01 05:00:00 16.4 3 Oeste 5 Nordeste 0 952.9 -0.1 72
2018-09-01 04:00:00 17.2 4 Nordeste 9 Sur 0 952.9 0.1 69
2018-09-01 03:00:00 17.5 6 Sur 13 Sur 0 952.9 0.3 68
2018-09-01 02:00:00 18.8 3 Sudeste 8 Sur 0 953 0.8 63
2018-09-01 01:00:00 19.6 5 Este 19 Nordeste 0 952.8 1 61
2018-09-01 00:00:00 20.7 6 Este 28 Norte 0 952.6 1.7 56
2018-08-31 23:00:00 21.8 10 Norte 20 Nordeste 0 952.2 2 53
2018-08-31 22:00:00 22.9 10 Este 27 Este 0 951.8 1.8 49
2018-08-31 21:00:00 24.6 20 Nordeste 36 Nordeste 0 950.9 0.9 43
2018-08-31 20:00:00 26.6 23 Nordeste 40 Nordeste 0 950.2 -0.1 36
2018-08-31 19:00:00 28.1 22 Nordeste 40 Nordeste 0 950 -0.6 29
2018-08-31 18:00:00 29.3 21 Nordeste 36 Nordeste 0 950 -1.2 26
2018-08-31 17:00:00 29.7 14 Nordeste 28 Nordeste 0 950.3 -1.4 25
2018-08-31 16:00:00 29 18 Nordeste 32 Nordeste 0 950.6 -1.5 27
2018-08-31 15:00:00 28.5 16 Nordeste 25 Norte 0 951.2 -1.3 31
2018-08-31 14:00:00 27.5 11 Nordeste 22 Nordeste 0 951.7 -1 36
2018-08-31 13:00:00 25.7 8 Norte 19 Norte 0 952.1 -0.6 41
2018-08-31 12:00:00 23.9 7 Norte 13 Nordeste 0 952.5 -0.2 46
2018-08-31 11:00:00 21.4 4 Nordeste 9 Norte 0 952.7 0.3 55
2018-08-31 10:00:00 19.1 4 Oeste 6 Oeste 0 952.7 0.6 63
2018-08-31 09:00:00 16.7 3 Sudoeste 5 Sudoeste 0 952.7 0.7 72
2018-08-31 08:00:00 16.4 0 Calma 6 Norte 0 952.4 0.3 72
2018-08-31 07:00:00 16.9 4 Este 8 Este 0 952.1 -0.1 69
2018-08-31 06:00:00 17.3 2 Oeste 5 Este 0 952 -0.2 69
2018-08-31 05:00:00 18 3 Sudeste 6 Sudeste 0 952.1 -0.2 67
2018-08-31 04:00:00 19.1 3 Sudeste 13 Sur 0 952.2 0 62
2018-08-31 03:00:00 20 0 Calma 16 Sudeste 0 952.2 -0.1 60
2018-08-31 02:00:00 21.4 10 Sudeste 19 Sudeste 0 952.3 0.3 56
2018-08-31 01:00:00 21.6 4 Norte 18 Este 0 952.2 0.7 55
2018-08-31 00:00:00 22 9 Este 28 Nordeste 0 952.3 1.6 53
2018-08-30 23:00:00 23.1 14 Nordeste 33 Nordeste 0 952 1.7 50
2018-08-30 22:00:00 24.9 19 Nordeste 32 Nordeste 0 951.5 1.4 42
2018-08-30 21:00:00 25.4 16 Nordeste 35 Nordeste 0 950.7 0.6 42
2018-08-30 20:00:00 26.6 15 Nordeste 35 Nordeste 0 950.3 0.2 38
2018-08-30 19:00:00 27.3 22 Nordeste 36 Nordeste 0 950.1 -0.6 38
2018-08-30 18:00:00 28.1 21 Nordeste 40 Nordeste 0 950.1 -1.3 37
2018-08-30 17:00:00 28.8 22 Nordeste 35 Nordeste 0 950.1 -1.8 35
2018-08-30 16:00:00 29.4 19 Nordeste 32 Nordeste 0 950.7 -1.9 34
2018-08-30 15:00:00 28.7 15 Nordeste 26 Norte 0 951.4 -1.8 36
2018-08-30 14:00:00 27.6 14 Nordeste 27 Norte 0 951.9 -1.6 39
2018-08-30 13:00:00 26.2 10 Norte 19 Nordeste 0 952.6 -0.9 44
2018-08-30 12:00:00 24 5 Norte 18 Nordeste 0 953.2 -0.4 50
2018-08-30 11:00:00 21.6 5 Norte 11 Norte 0 953.5 0.1 57
2018-08-30 10:00:00 19.7 5 Nordeste 10 Nordeste 0 953.5 0.4 65
2018-08-30 09:00:00 17.8 3 Nordeste 9 Nordeste 0 953.6 0.3 71
2018-08-30 08:00:00 16.2 6 Nordeste 9 Nordeste 0 953.4 0.1 78
2018-08-30 07:00:00 16.7 0 Calma 8 Sudeste 0 953.1 -0.3 76
2018-08-30 06:00:00 17 3 Sur 7 Este 0 953.3 0 76
2018-08-30 05:00:00 17.9 4 Este 13 Sur 0 953.3 -0.1 72
2018-08-30 04:00:00 18.4 2 Norte 7 Sudeste 0 953.4 0.1 69
2018-08-30 03:00:00 19 3 Sudoeste 13 Nordeste 0 953.3 0.2 69
2018-08-30 02:00:00 19.8 8 Nordeste 16 Este 0 953.4 0.9 64
2018-08-30 01:00:00 20.3 3 Nordeste 25 Nordeste 0 953.3 1.4 64
2018-08-30 00:00:00 20.9 17 Nordeste 30 Nordeste 0 953.1 2.2 63
2018-08-29 23:00:00 21.8 17 Nordeste 36 Nordeste 0 952.5 2.1 60
2018-08-29 22:00:00 23.2 22 Nordeste 40 Nordeste 0 951.9 2.2 53
2018-08-29 21:00:00 24.7 22 Nordeste 41 Nordeste 0 950.9 1.4 47
2018-08-29 20:00:00 26.4 19 Nordeste 40 Nordeste 0 950.4 1.1 42
2018-08-29 19:00:00 28.4 26 Nordeste 45 Este 0 949.7 0 35
2018-08-29 18:00:00 29.6 21 Nordeste 41 Nordeste 0 949.5 -0.7 32
2018-08-29 17:00:00 29.9 24 Nordeste 39 Nordeste 0 949.3 -1.4 30
2018-08-29 16:00:00 30.4 20 Nordeste 31 Este 0 949.7 -1.5 27
2018-08-29 15:00:00 29.5 18 Nordeste 34 Nordeste 0 950.2 -1.3 29
2018-08-29 14:00:00 28.5 14 Nordeste 28 Nordeste 0 950.7 -0.6 33
2018-08-29 13:00:00 27.1 11 Nordeste 23 Nordeste 0 951.2 0.3 37
2018-08-29 12:00:00 26.4 10 Nordeste 19 Nordeste 0 951.5 0.7 39
2018-08-29 11:00:00 23.4 3 Noroeste 8 Oeste 0 951.3 1.1 52
2018-08-29 10:00:00 20.4 4 Oeste 10 Sur 0 950.9 1.3 65
2018-08-29 09:00:00 18.4 3 Este 5 Sur 0 950.8 1.8 69
2018-08-29 08:00:00 17 3 Este 6 Nordeste 0 950.2 1.3 73
2018-08-29 07:00:00 17.7 4 Nordeste 7 Sur 0 949.6 0.6 70
2018-08-29 06:00:00 18.4 3 Sur 6 Sudoeste 0 949 0.3 67
2018-08-29 05:00:00 19.4 4 Sudoeste 9 Sur 0 948.9 0 65
2018-08-29 04:00:00 20.9 4 Nordeste 13 Este 0 949 0.5 52
2018-08-29 03:00:00 21.3 7 Nordeste 13 Nordeste 0 948.7 0.7 55
2018-08-29 02:00:00 22.6 3 Norte 15 Sur 0 948.9 1.6 52
2018-08-29 01:00:00 23.7 5 Sudeste 14 Sudeste 0 948.5 1.5 47
2018-08-29 00:00:00 24.2 8 Norte 19 Sudeste 0 948 2.1 50
2018-08-28 23:00:00 25.2 8 Sudeste 24 Sudeste 0.4 947.3 2.7 49
2018-08-28 22:00:00 27.7 12 Sudeste 40 Sur 0 947 1.7 31
2018-08-28 21:00:00 29.7 9 Sudoeste 53 Sudoeste 0 945.9 0.3 22
2018-08-28 20:00:00 31.9 35 Sudoeste 82 Sudoeste 0 944.6 -1.6 15
2018-08-28 19:00:00 33.3 16 Sudoeste 34 Sudoeste 0 945.3 -1.3 21
2018-08-28 18:00:00 35.5 20 Sudoeste 40 Sudoeste 0 945.6 -1.8 17
2018-08-28 17:00:00 36.3 21 Oeste 45 Sur 0 946.2 -2 17
2018-08-28 16:00:00 36.1 12 Sudoeste 31 Sudoeste 0 946.6 -2.7 16
2018-08-28 15:00:00 33.8 11 Oeste 19 Norte 0 947.4 -2.3 25
2018-08-28 14:00:00 29.3 10 Norte 15 Norte 0 948.2 -1.8 40
2018-08-28 13:00:00 26 3 Nordeste 7 Norte 0 949.3 -0.6 44
2018-08-28 12:00:00 23.1 3 Sudoeste 6 Noroeste 0 949.7 -0.1 53
2018-08-28 11:00:00 21.2 3 Noroeste 7 Noroeste 0 950 0.5 55
2018-08-28 10:00:00 19.2 3 Sur 5 Oeste 0 949.9 0.6 62
2018-08-28 09:00:00 17.3 2 Sudoeste 13 Sur 0 949.8 1.1 66
2018-08-28 08:00:00 16.9 6 Nordeste 14 Sudoeste 0 949.5 1 66
2018-08-28 07:00:00 16.8 4 Oeste 8 Sudoeste 0 949.3 0.4 66
2018-08-28 06:00:00 18.2 3 Sudoeste 7 Oeste 0 948.7 -0.2 59
2018-08-28 05:00:00 18.6 3 Este 10 Sudoeste 0 948.5 -0.6 59
2018-08-28 04:00:00 18.8 5 Sudoeste 8 Sudoeste 0 948.9 -0.2 58
2018-08-28 03:00:00 20.9 3 Nordeste 9 Sur 0 948.9 -0.1 51
2018-08-28 02:00:00 22 0 Calma 6 Norte 0 949.1 0.1 48
2018-08-28 01:00:00 23.5 5 Norte 7 Nordeste 0 949.1 0.5 43
2018-08-28 00:00:00 24.4 5 Este 8 Este 0 949 0.8 39
2018-08-27 23:00:00 26.1 4 Norte 10 Este 0 949 1.5 34
2018-08-27 22:00:00 27.4 6 Este 14 Nordeste 0 948.6 1.4 32
2018-08-27 21:00:00 29.7 13 Nordeste 25 Nordeste 0 948.2 0.9 27
2018-08-27 20:00:00 31.3 17 Nordeste 27 Nordeste 0 947.5 0.1 25
2018-08-27 19:00:00 33.5 17 Nordeste 26 Nordeste 0 947.2 -0.9 23
2018-08-27 18:00:00 34.6 12 Nordeste 23 Nordeste 0 947.3 -1.3 20
2018-08-27 17:00:00 34.8 11 Nordeste 21 Nordeste 0 947.4 -1.5 19
2018-08-27 16:00:00 34.1 9 Nordeste 20 Norte 0 948.1 -1.5 20
2018-08-27 15:00:00 33.1 4 Nordeste 17 Nordeste 0 948.6 -1.4 19
2018-08-27 14:00:00 31.3 10 Nordeste 18 Nordeste 0 948.9 -1.4 27
2018-08-27 13:00:00 29 8 Nordeste 14 Norte 0 949.6 -0.8 31
2018-08-27 12:00:00 25.6 4 Norte 9 Norte 0 950 -0.3 37
2018-08-27 11:00:00 21.9 2 Norte 6 Oeste 0 950.3 0.3 48
2018-08-27 10:00:00 18.5 3 Oeste 5 Sudoeste 0 950.4 0.9 58
2018-08-27 09:00:00 16 2 Noroeste 4 Nordeste 0 950.3 1.1 65
2018-08-27 08:00:00 14.2 2 Sudoeste 3 Sudoeste 0 950 1 71
2018-08-27 07:00:00 14.9 3 Nordeste 5 Sudoeste 0 949.5 0.5 69
2018-08-27 06:00:00 15.3 0 Calma 5 Este 0 949.2 0.1 67
2018-08-27 05:00:00 16.1 4 Nordeste 6 Nordeste 0 949 -0.1 65
2018-08-27 04:00:00 17 3 Sudoeste 6 Oeste 0 949 0.1 61
2018-08-27 03:00:00 18.1 3 Sudeste 5 Sudeste 0 949.1 0.5 57
2018-08-27 02:00:00 19.3 0 Calma 6 Sudeste 0 949.1 0.7 52
2018-08-27 01:00:00 20.4 3 Este 13 Sur 0 948.9 1.1 50
2018-08-27 00:00:00 22.1 5 Sudeste 12 Nordeste 0 948.6 1.7 43
2018-08-26 23:00:00 24.1 10 Nordeste 22 Nordeste 0 948.4 2.2 38
2018-08-26 22:00:00 24.5 13 Nordeste 24 Nordeste 0 947.8 1.8 37
2018-08-26 21:00:00 25.7 15 Nordeste 32 Nordeste 0 946.9 1 33
2018-08-26 20:00:00 27.6 24 Nordeste 32 Nordeste 0 946.2 -0.1 30
2018-08-26 19:00:00 30 20 Nordeste 34 Nordeste 0 946 -1 26
2018-08-26 18:00:00 33 9 Noroeste 24 Noroeste 0 945.9 -2.1 19
2018-08-26 17:00:00 31.8 6 Sudeste 19 Nordeste 0 946.3 -2.5 22
2018-08-26 16:00:00 30.7 8 Nordeste 17 Norte 0 947 -2.5 24
2018-08-26 15:00:00 28.4 8 Nordeste 16 Noroeste 0 948 -2.3 28
2018-08-26 14:00:00 26.8 5 Sur 13 Oeste 0 948.8 -1.9 31
2018-08-26 13:00:00 23.9 5 Oeste 11 Sudoeste 0 949.5 -1.2 38
2018-08-26 12:00:00 21.2 5 Noroeste 11 Oeste 0 950.3 -0.4 46
2018-08-26 11:00:00 17.8 3 Oeste 7 Oeste 0 950.7 0.2 56
2018-08-26 10:00:00 15.3 3 Oeste 6 Sudoeste 0 950.7 0.5 66
2018-08-26 09:00:00 12.8 3 Sudoeste 4 Sudoeste 0 950.7 0.6 73
2018-08-26 08:00:00 11.2 2 Oeste 5 Noroeste 0 950.5 0.4 79
2018-08-26 07:00:00 12.2 2 Norte 4 Nordeste 0 950.2 -0.2 76
2018-08-26 06:00:00 12.6 0 Calma 3 Este 0 950.1 -0.4 74
2018-08-26 05:00:00 13.1 0 Calma 6 Sudeste 0 950.1 -0.6 72
2018-08-26 04:00:00 13.6 4 Sudeste 7 Sudeste 0 950.4 -0.2 69
2018-08-26 03:00:00 14.2 4 Sudeste 9 Sur 0 950.5 0 68
2018-08-26 02:00:00 15.7 4 Este 14 Este 0 950.7 0.6 62
2018-08-26 01:00:00 16.1 3 Nordeste 19 Nordeste 0 950.6 1.3 61
2018-08-26 00:00:00 17.1 16 Nordeste 25 Nordeste 0 950.5 2.2 57
2018-08-25 23:00:00 17.8 13 Nordeste 32 Este 0 950.1 2.5 55
2018-08-25 22:00:00 18.9 20 Nordeste 35 Nordeste 0 949.3 2.2 52
2018-08-25 21:00:00 20.5 24 Nordeste 39 Nordeste 0 948.3 1.2 46
2018-08-25 20:00:00 22.3 24 Nordeste 46 Nordeste 0 947.6 0.3 42
2018-08-25 19:00:00 23.9 22 Nordeste 40 Nordeste 0 947.1 -0.4 35
2018-08-25 18:00:00 25.7 26 Nordeste 42 Nordeste 0 947.1 -1.1 31
2018-08-25 17:00:00 25.9 25 Nordeste 37 Nordeste 0 947.3 -1.8 31
2018-08-25 16:00:00 25.3 20 Este 33 Nordeste 0 947.5 -2.5 32
2018-08-25 15:00:00 26.5 19 Nordeste 33 Nordeste 0 948.2 -2.3 31
2018-08-25 14:00:00 25.5 8 Nordeste 21 Nordeste 0 949.1 -1.9 34
2018-08-25 13:00:00 23.3 6 Norte 14 Nordeste 0 950 -1.1 40
2018-08-25 12:00:00 21.2 4 Noroeste 10 Nordeste 0 950.5 -0.5 51
2018-08-25 11:00:00 18.5 5 Norte 9 Norte 0 951 0.2 60
2018-08-25 10:00:00 15.8 3 Oeste 5 Sudoeste 0 951.1 0.2 69
2018-08-25 09:00:00 12.8 2 Sudoeste 6 Sur 0 951 0.2 80
2018-08-25 08:00:00 11.8 3 Sudoeste 3 Sudoeste 0 950.8 -0.2 83
2018-08-25 07:00:00 12.2 0 Calma 4 Nordeste 0 950.9 -0.2 82
2018-08-25 06:00:00 12.7 2 Sudeste 6 Sur 0 950.8 -0.5 80
2018-08-25 05:00:00 13.9 4 Oeste 6 Nordeste 0 951 -0.6 77
2018-08-25 04:00:00 14.9 3 Nordeste 11 Sudeste 0 951.1 -0.6 72
2018-08-25 03:00:00 15.5 4 Sudeste 9 Sudeste 0 951.3 -0.3 71
2018-08-25 02:00:00 16.8 2 Sur 10 Nordeste 0 951.6 0 65
2018-08-25 01:00:00 17.7 6 Nordeste 21 Nordeste 0 951.7 0.7 62
2018-08-25 00:00:00 18.5 12 Nordeste 21 Nordeste 0 951.6 1.7 59
2018-08-24 23:00:00 18.9 4 Este 30 Nordeste 0 951.6 2.1 57
2018-08-24 22:00:00 19.9 19 Nordeste 42 Nordeste 0 951 1.5 56
2018-08-24 21:00:00 21.4 28 Nordeste 45 Nordeste 0 949.9 0.5 54
2018-08-24 20:00:00 24.2 26 Nordeste 42 Nordeste 0 949.5 -0.1 47
2018-08-24 19:00:00 25.8 26 Nordeste 43 Nordeste 0 949.5 -0.8 40
2018-08-24 18:00:00 27.4 25 Nordeste 39 Nordeste 0 949.4 -1.6 35
2018-08-24 17:00:00 29 19 Nordeste 32 Nordeste 0 949.6 -2.1 30
2018-08-24 16:00:00 30 13 Nordeste 29 Nordeste 0 950.3 -2.1 29
2018-08-24 15:00:00 28.9 5 Este 15 Oeste 0 951 -1.8 29
2018-08-24 14:00:00 27.5 6 Oeste 16 Norte 0 951.7 -1.4 34
2018-08-24 13:00:00 25.5 6 Nordeste 14 Norte 0 952.4 -0.8 39
2018-08-24 12:00:00 23.8 6 Nordeste 12 Nordeste 0 952.8 -0.2 45
2018-08-24 11:00:00 21.1 4 Norte 10 Norte 0 953.1 0.8 57
2018-08-24 10:00:00 18.5 6 Oeste 12 Sudoeste 0 953.2 1.1 73
2018-08-24 09:00:00 16.1 3 Noroeste 7 Nordeste 0 953 1.1 80
2018-08-24 08:00:00 15.2 6 Sur 12 Sur 0 952.3 0.3 83
2018-08-24 07:00:00 15.2 4 Sur 10 Sur 0 952.1 0.1 84
2018-08-24 06:00:00 15.8 4 Sur 6 Sur 0 951.9 -0.1 82
2018-08-24 05:00:00 16.2 5 Sudoeste 10 Sur 0 952 -0.1 81
2018-08-24 04:00:00 17.9 4 Sudoeste 6 Sur 0 952 -0.3 74
2018-08-24 03:00:00 18.3 2 Sudoeste 7 Norte 0 952 0 74
2018-08-24 02:00:00 19.7 3 Este 7 Noroeste 0 952.1 0.2 67
2018-08-24 01:00:00 20.9 5 Nordeste 15 Nordeste 0 952.3 1.2 63
2018-08-24 00:00:00 22 9 Nordeste 21 Nordeste 0 952 1.9 60